Time;durP1;ratioP1;P1;durP2;ratioP2;P2;SDS_P1;SDS_P2;PMS_P1;PMS_P2;Temp;Humidity;BMP_temperature;BMP_pressure;BME280_temperature;BME280_humidity;BME280_pressure;Samples;Min_cycle;Max_cycle;Signal;HPM_P1;HPM_P2
2022/10/06 00:02:17;;;;;;;;;;;16.00;89.60;;;;;;5082507;28;19928;-78
2022/10/06 00:04:44;;;;;;;;;;;16.00;89.70;;;;;;5083738;28;19928;-77
2022/10/06 00:07:12;;;;;;;;;;;16.00;89.60;;;;;;5082343;28;20305;-77
2022/10/06 00:09:39;;;;;;;;;;;16.00;89.60;;;;;;5084189;28;19928;-78
2022/10/06 00:12:05;;;;;;;;;;;16.00;89.60;;;;;;5082809;28;19932;-78
2022/10/06 00:14:32;;;;;;;;;;;16.00;89.60;;;;;;5084057;28;19939;-78
2022/10/06 00:16:59;;;;;;;;;;;16.00;89.60;;;;;;5083062;28;19935;-78
2022/10/06 00:19:25;;;;;;;;;;;16.00;89.70;;;;;;5083419;28;20317;-77
2022/10/06 00:21:52;;;;;;;;;;;16.00;89.90;;;;;;5081256;28;19928;-78
2022/10/06 00:24:20;;;;;;;;;;;16.00;90.00;;;;;;5083052;28;20600;-76
2022/10/06 00:26:46;;;;;;;;;;;16.00;90.00;;;;;;5079081;28;19928;-77
2022/10/06 00:29:13;;;;;;;;;;;16.00;90.10;;;;;;5083279;28;19938;-78
2022/10/06 00:31:40;;;;;;;;;;;16.00;90.10;;;;;;5081512;28;19996;-78
2022/10/06 00:34:06;;;;;;;;;;;16.00;90.50;;;;;;5083651;28;19928;-76
2022/10/06 00:36:33;;;;;;;;;;;16.00;90.30;;;;;;5079565;28;19951;-77
2022/10/06 00:39:00;;;;;;;;;;;16.00;90.40;;;;;;5084053;28;19935;-77
2022/10/06 00:41:28;;;;;;;;;;;16.00;90.40;;;;;;5080084;28;19928;-77
2022/10/06 00:43:55;;;;;;;;;;;16.00;90.50;;;;;;5083914;28;20403;-79
2022/10/06 00:46:27;;;;;;;;;;;16.00;90.50;;;;;;5081742;28;19928;-79
2022/10/06 00:48:56;;;;;;;;;;;16.00;90.50;;;;;;5083546;28;19935;-77
2022/10/06 00:51:23;;;;;;;;;;;16.00;90.50;;;;;;5081633;28;19932;-78
2022/10/06 00:53:50;;;;;;;;;;;16.00;90.50;;;;;;5083629;28;19939;-76
2022/10/06 00:56:17;;;;;;;;;;;16.00;90.60;;;;;;5083459;28;20269;-77
2022/10/06 00:58:45;;;;;;;;;;;16.00;90.60;;;;;;5078223;28;19928;-77
2022/10/06 01:01:12;;;;;;;;;;;16.00;90.70;;;;;;5083138;28;19928;-79
2022/10/06 01:03:40;;;;;;;;;;;16.00;90.70;;;;;;5083040;28;20465;-81
2022/10/06 01:06:06;;;;;;;;;;;16.00;90.80;;;;;;5081182;28;19935;-81
2022/10/06 01:08:33;;;;;;;;;;;16.00;90.80;;;;;;5083387;28;19932;-79
2022/10/06 01:11:01;;;;;;;;;;;16.00;90.80;;;;;;5083484;28;20331;-80
2022/10/06 01:13:28;;;;;;;;;;;16.00;90.80;;;;;;5082888;28;19989;-81
2022/10/06 01:15:58;;;;;;;;;;;16.00;90.80;;;;;;5083518;28;19928;-80
2022/10/06 01:18:27;;;;;;;;;;;16.00;90.80;;;;;;5083818;28;19943;-80
2022/10/06 01:20:55;;;;;;;;;;;15.90;90.70;;;;;;5083098;28;20034;-79
2022/10/06 01:23:23;;;;;;;;;;;15.90;90.80;;;;;;5082891;28;20291;-79
2022/10/06 01:25:50;;;;;;;;;;;15.90;90.80;;;;;;5082285;28;19928;-80
2022/10/06 01:28:16;;;;;;;;;;;15.90;90.80;;;;;;5078351;28;19928;-81
2022/10/06 01:30:49;;;;;;;;;;;16.00;90.80;;;;;;5082441;28;20275;-81
2022/10/06 01:33:16;;;;;;;;;;;16.00;90.90;;;;;;5086303;28;19938;-81
2022/10/06 01:35:43;;;;;;;;;;;15.90;90.80;;;;;;5085767;28;19928;-80
2022/10/06 01:38:10;;;;;;;;;;;15.90;90.90;;;;;;5087140;28;19934;-81
2022/10/06 01:40:38;;;;;;;;;;;15.90;90.90;;;;;;5086831;28;19959;-81
2022/10/06 01:43:04;;;;;;;;;;;15.90;91.00;;;;;;5083443;28;20671;-80
2022/10/06 01:45:31;;;;;;;;;;;15.90;91.00;;;;;;5085921;28;19928;-82
2022/10/06 01:47:58;;;;;;;;;;;15.90;91.10;;;;;;5086744;28;19935;-81
2022/10/06 01:50:24;;;;;;;;;;;15.90;91.10;;;;;;5080847;28;19932;-79
2022/10/06 01:52:51;;;;;;;;;;;15.90;91.10;;;;;;5086802;28;19934;-80
2022/10/06 01:55:18;;;;;;;;;;;15.90;91.10;;;;;;5087361;28;20334;-80
2022/10/06 01:57:46;;;;;;;;;;;15.90;91.20;;;;;;5081191;28;19967;-79
2022/10/06 02:00:13;;;;;;;;;;;15.90;91.20;;;;;;5079990;28;19955;-81
2022/10/06 02:02:39;;;;;;;;;;;15.90;91.30;;;;;;5086085;28;19947;-80
2022/10/06 02:05:06;;;;;;;;;;;15.90;91.30;;;;;;5086620;28;20307;-80
2022/10/06 02:07:34;;;;;;;;;;;15.90;91.20;;;;;;5086153;28;19935;-80
2022/10/06 02:10:01;;;;;;;;;;;15.90;91.30;;;;;;5084762;28;19934;-80
2022/10/06 02:12:28;;;;;;;;;;;15.90;91.30;;;;;;5084540;28;19928;-80
2022/10/06 02:14:56;;;;;;;;;;;15.90;91.30;;;;;;5084866;28;19974;-80
2022/10/06 02:17:23;;;;;;;;;;;15.90;91.40;;;;;;5085582;28;19935;-81
2022/10/06 02:19:49;;;;;;;;;;;15.90;91.40;;;;;;5084818;28;19935;-79
2022/10/06 02:22:16;;;;;;;;;;;15.90;91.40;;;;;;5081117;28;20705;-80
2022/10/06 02:24:43;;;;;;;;;;;15.90;91.40;;;;;;5084204;28;19959;-80
2022/10/06 02:27:10;;;;;;;;;;;15.90;91.40;;;;;;5081273;28;19957;-80
2022/10/06 02:29:36;;;;;;;;;;;15.90;91.40;;;;;;5083766;28;20352;-80
2022/10/06 02:32:05;;;;;;;;;;;15.80;91.30;;;;;;5084374;28;19928;-79
2022/10/06 02:34:31;;;;;;;;;;;15.90;91.40;;;;;;5085355;28;19971;-80
2022/10/06 02:36:58;;;;;;;;;;;15.90;91.30;;;;;;5080946;28;19928;-80
2022/10/06 02:39:25;;;;;;;;;;;15.90;91.30;;;;;;5085933;28;20399;-81
2022/10/06 02:41:51;;;;;;;;;;;15.90;91.30;;;;;;5084860;28;19928;-81
2022/10/06 02:44:18;;;;;;;;;;;15.90;91.30;;;;;;5086009;28;20482;-80
2022/10/06 02:46:44;;;;;;;;;;;15.90;91.30;;;;;;5085112;28;19928;-81
2022/10/06 02:49:12;;;;;;;;;;;15.90;91.30;;;;;;5086001;28;19928;-80
2022/10/06 02:51:39;;;;;;;;;;;15.90;91.30;;;;;;5081029;28;19948;-81
2022/10/06 02:54:05;;;;;;;;;;;15.90;91.30;;;;;;5085232;28;19931;-81
2022/10/06 02:56:32;;;;;;;;;;;15.90;91.30;;;;;;5084090;28;20030;-81
2022/10/06 02:58:59;;;;;;;;;;;15.90;91.30;;;;;;5075735;28;19928;-81
2022/10/06 03:01:26;;;;;;;;;;;15.90;91.30;;;;;;5084403;28;19928;-80
2022/10/06 03:03:53;;;;;;;;;;;15.90;91.30;;;;;;5083587;28;20953;-80
2022/10/06 03:06:22;;;;;;;;;;;15.90;91.30;;;;;;5082309;28;19928;-80
2022/10/06 03:08:49;;;;;;;;;;;15.90;91.40;;;;;;5082608;28;19931;-81
2022/10/06 03:11:18;;;;;;;;;;;15.90;91.40;;;;;;5083540;28;19935;-81
2022/10/06 03:13:44;;;;;;;;;;;15.90;91.40;;;;;;5082320;28;19986;-81
2022/10/06 03:16:14;;;;;;;;;;;15.90;91.40;;;;;;5084356;28;20396;-81
2022/10/06 03:18:43;;;;;;;;;;;15.90;91.40;;;;;;5082707;28;19928;-80
2022/10/06 03:21:10;;;;;;;;;;;15.90;91.40;;;;;;5083283;28;19935;-79
2022/10/06 03:23:38;;;;;;;;;;;15.90;91.40;;;;;;5083762;28;19928;-80
2022/10/06 03:26:04;;;;;;;;;;;15.90;91.40;;;;;;5083702;28;19935;-80
2022/10/06 03:28:31;;;;;;;;;;;15.90;91.40;;;;;;5083450;28;19928;-81
2022/10/06 03:31:00;;;;;;;;;;;15.90;91.50;;;;;;5082946;28;19939;-81
2022/10/06 03:33:27;;;;;;;;;;;15.90;91.50;;;;;;5084772;28;20015;-81
2022/10/06 03:36:04;;;;;;;;;;;15.90;91.50;;;;;;5084510;28;19928;-82
2022/10/06 03:38:31;;;;;;;;;;;15.90;91.50;;;;;;5078919;28;19935;-80
2022/10/06 03:41:06;;;;;;;;;;;15.90;91.50;;;;;;5083800;28;19977;-82
2022/10/06 03:43:33;;;;;;;;;;;15.90;91.50;;;;;;5080917;28;20303;-81
2022/10/06 03:46:00;;;;;;;;;;;15.80;91.60;;;;;;5083133;28;19928;-80
2022/10/06 03:48:27;;;;;;;;;;;15.90;91.60;;;;;;5084554;28;19932;-81
2022/10/06 03:50:54;;;;;;;;;;;15.90;91.70;;;;;;5082906;28;19931;-80
2022/10/06 03:53:24;;;;;;;;;;;15.80;91.70;;;;;;5076657;28;19979;-81
2022/10/06 03:55:52;;;;;;;;;;;15.80;91.70;;;;;;5084087;28;20566;-79
2022/10/06 03:58:20;;;;;;;;;;;15.80;91.80;;;;;;5076447;28;20216;-80
2022/10/06 04:00:46;;;;;;;;;;;15.90;91.90;;;;;;5084118;28;19928;-81
2022/10/06 04:03:13;;;;;;;;;;;15.80;91.90;;;;;;5084391;28;20646;-82
2022/10/06 04:05:39;;;;;;;;;;;15.80;91.90;;;;;;5082761;28;19928;-81
2022/10/06 04:08:06;;;;;;;;;;;15.80;92.00;;;;;;5084755;28;19928;-80
2022/10/06 04:10:33;;;;;;;;;;;15.80;92.10;;;;;;5083966;28;19939;-80
2022/10/06 04:12:59;;;;;;;;;;;15.80;92.10;;;;;;5083187;28;19932;-81
2022/10/06 04:15:27;;;;;;;;;;;15.80;92.10;;;;;;5082521;28;19932;-79
2022/10/06 04:17:54;;;;;;;;;;;15.80;92.20;;;;;;5083994;28;19935;-80
2022/10/06 04:20:21;;;;;;;;;;;15.80;92.20;;;;;;5081850;28;19939;-80
2022/10/06 04:22:47;;;;;;;;;;;15.80;92.30;;;;;;5080927;28;19928;-81
2022/10/06 04:25:14;;;;;;;;;;;15.80;92.40;;;;;;5083403;28;20529;-81
2022/10/06 04:27:40;;;;;;;;;;;15.80;92.40;;;;;;5079684;28;20396;-80
2022/10/06 04:30:08;;;;;;;;;;;15.80;92.40;;;;;;5083937;28;19935;-81
2022/10/06 04:32:35;;;;;;;;;;;15.80;92.40;;;;;;5084330;28;20407;-80
2022/10/06 04:35:02;;;;;;;;;;;15.80;92.40;;;;;;5083599;28;19927;-81
2022/10/06 04:37:29;;;;;;;;;;;15.80;92.50;;;;;;5080341;28;19972;-81
2022/10/06 04:39:55;;;;;;;;;;;15.80;92.50;;;;;;5084587;28;19928;-84
2022/10/06 04:42:22;;;;;;;;;;;15.80;92.50;;;;;;5079744;28;19943;-82
2022/10/06 04:44:49;;;;;;;;;;;15.80;92.60;;;;;;5083507;28;19951;-82
2022/10/06 04:47:15;;;;;;;;;;;15.80;92.60;;;;;;5084704;28;19924;-83
2022/10/06 04:49:43;;;;;;;;;;;15.80;92.60;;;;;;5083836;28;19928;-82
2022/10/06 04:52:10;;;;;;;;;;;15.80;92.60;;;;;;5083309;28;19928;-83
2022/10/06 04:54:37;;;;;;;;;;;15.80;92.60;;;;;;5084790;28;19935;-81
2022/10/06 04:57:04;;;;;;;;;;;15.80;92.70;;;;;;5079736;28;19928;-82
2022/10/06 05:02:15;;;;;;;;;;;15.70;92.70;;;;;;5083436;28;19931;-83
2022/10/06 05:04:43;;;;;;;;;;;15.80;92.70;;;;;;5081927;28;19928;-82
2022/10/06 05:07:09;;;;;;;;;;;15.80;92.80;;;;;;5086004;28;19939;-81
2022/10/06 05:09:36;;;;;;;;;;;15.80;92.80;;;;;;5087506;28;19935;-82
2022/10/06 05:12:03;;;;;;;;;;;15.80;92.80;;;;;;5085591;28;20392;-81
2022/10/06 05:14:32;;;;;;;;;;;15.80;92.80;;;;;;5088078;28;19935;-81
2022/10/06 05:16:59;;;;;;;;;;;15.80;92.80;;;;;;5085849;28;20023;-82
2022/10/06 05:19:26;;;;;;;;;;;15.80;92.90;;;;;;5087702;28;19985;-82
2022/10/06 05:21:53;;;;;;;;;;;15.70;92.90;;;;;;5081617;28;20344;-82
2022/10/06 05:24:21;;;;;;;;;;;15.70;92.90;;;;;;5087303;28;19931;-82
2022/10/06 05:26:48;;;;;;;;;;;15.80;93.00;;;;;;5082540;28;20023;-82
2022/10/06 05:29:15;;;;;;;;;;;15.80;93.10;;;;;;5086842;28;19928;-82
2022/10/06 05:31:42;;;;;;;;;;;15.80;93.10;;;;;;5086421;28;19928;-81
2022/10/06 05:34:09;;;;;;;;;;;15.80;93.10;;;;;;5087500;28;19932;-82
2022/10/06 05:36:35;;;;;;;;;;;15.80;93.10;;;;;;5085011;28;20470;-81
2022/10/06 05:39:03;;;;;;;;;;;15.70;93.10;;;;;;5086705;28;20613;-81
2022/10/06 05:41:31;;;;;;;;;;;15.80;93.10;;;;;;5085229;28;19932;-81
2022/10/06 05:43:58;;;;;;;;;;;15.80;93.10;;;;;;5083934;28;19928;-80
2022/10/06 05:46:27;;;;;;;;;;;15.70;93.10;;;;;;5087787;28;20418;-82
2022/10/06 05:48:54;;;;;;;;;;;15.70;93.10;;;;;;5087550;28;19927;-81
2022/10/06 05:51:22;;;;;;;;;;;15.70;93.10;;;;;;5086613;28;19928;-81
2022/10/06 05:53:49;;;;;;;;;;;15.70;93.10;;;;;;5086794;28;19939;-81
2022/10/06 05:56:18;;;;;;;;;;;15.70;93.20;;;;;;5087564;28;19934;-82
2022/10/06 05:58:45;;;;;;;;;;;15.70;93.20;;;;;;5082117;28;19939;-80
2022/10/06 06:01:13;;;;;;;;;;;15.70;93.20;;;;;;5086548;28;19932;-82
2022/10/06 06:03:40;;;;;;;;;;;15.70;93.20;;;;;;5087125;28;19928;-81
2022/10/06 06:06:15;;;;;;;;;;;15.70;93.20;;;;;;5084453;28;19928;-80
2022/10/06 06:08:41;;;;;;;;;;;15.70;93.20;;;;;;5085951;28;20399;-81
2022/10/06 06:11:08;;;;;;;;;;;15.70;93.30;;;;;;5085554;28;20671;-81
2022/10/06 06:13:36;;;;;;;;;;;15.70;93.30;;;;;;5086265;28;20707;-81
2022/10/06 06:16:05;;;;;;;;;;;15.70;93.30;;;;;;5083543;28;19928;-81
2022/10/06 06:18:31;;;;;;;;;;;15.70;93.20;;;;;;5085920;28;19935;-82
2022/10/06 06:20:58;;;;;;;;;;;15.70;93.20;;;;;;5083280;28;20585;-82
2022/10/06 06:23:30;;;;;;;;;;;15.60;93.20;;;;;;5086756;28;19939;-81
2022/10/06 06:25:57;;;;;;;;;;;15.70;93.20;;;;;;5083055;28;20502;-81
2022/10/06 06:28:23;;;;;;;;;;;15.70;93.10;;;;;;5085856;28;19972;-81
2022/10/06 06:30:57;;;;;;;;;;;15.70;93.10;;;;;;5086225;28;20354;-82
2022/10/06 06:33:24;;;;;;;;;;;15.70;93.00;;;;;;5084841;28;19928;-81
2022/10/06 06:35:51;;;;;;;;;;;15.70;92.90;;;;;;5086511;28;20047;-82
2022/10/06 06:38:17;;;;;;;;;;;15.70;92.80;;;;;;5081014;28;19958;-82
2022/10/06 06:40:44;;;;;;;;;;;15.70;92.80;;;;;;5085831;28;20145;-81
2022/10/06 06:43:11;;;;;;;;;;;15.70;92.80;;;;;;5081441;28;19928;-81
2022/10/06 06:45:38;;;;;;;;;;;15.70;92.80;;;;;;5084879;28;19931;-81
2022/10/06 06:48:06;;;;;;;;;;;15.60;92.70;;;;;;5085398;28;19938;-81
2022/10/06 06:50:33;;;;;;;;;;;15.60;92.70;;;;;;5085691;28;20572;-81
2022/10/06 06:53:01;;;;;;;;;;;15.70;92.80;;;;;;5083978;28;19932;-81
2022/10/06 06:55:27;;;;;;;;;;;15.70;92.80;;;;;;5084640;28;20481;-82
2022/10/06 06:57:54;;;;;;;;;;;15.60;92.70;;;;;;5080233;28;19928;-81
2022/10/06 07:00:22;;;;;;;;;;;15.70;92.80;;;;;;5084607;28;19928;-81
2022/10/06 07:02:57;;;;;;;;;;;15.70;92.70;;;;;;5082642;28;19931;-81
2022/10/06 07:05:25;;;;;;;;;;;15.60;92.70;;;;;;5085189;28;19931;-80
2022/10/06 07:07:52;;;;;;;;;;;15.60;92.70;;;;;;5083860;28;19934;-81
2022/10/06 07:10:18;;;;;;;;;;;15.70;92.70;;;;;;5084672;28;19932;-81
2022/10/06 07:12:45;;;;;;;;;;;15.60;92.70;;;;;;5085237;28;19928;-81
2022/10/06 07:26:10;;;;;;;;;;;15.70;92.60;;;;;;5084700;28;19981;-81
2022/10/06 07:28:37;;;;;;;;;;;15.70;92.60;;;;;;5084192;28;19939;-81
2022/10/06 07:31:03;;;;;;;;;;;15.70;92.60;;;;;;5084412;28;19928;-81
2022/10/06 07:33:31;;;;;;;;;;;15.70;92.60;;;;;;5086076;28;19928;-81
2022/10/06 07:35:59;;;;;;;;;;;15.70;92.60;;;;;;5085219;28;19942;-81
2022/10/06 07:38:26;;;;;;;;;;;15.70;92.50;;;;;;5084377;28;19932;-82
2022/10/06 07:40:56;;;;;;;;;;;15.70;92.50;;;;;;5084291;28;20388;-81
2022/10/06 07:43:23;;;;;;;;;;;15.70;92.50;;;;;;5080247;28;20060;-80
2022/10/06 07:45:50;;;;;;;;;;;15.70;92.50;;;;;;5083998;28;19939;-81
2022/10/06 07:48:17;;;;;;;;;;;15.70;92.40;;;;;;5085250;28;19935;-81
2022/10/06 07:50:46;;;;;;;;;;;15.70;92.40;;;;;;5083042;28;19928;-81
2022/10/06 07:53:15;;;;;;;;;;;15.70;92.40;;;;;;5084229;28;20306;-81
2022/10/06 07:55:43;;;;;;;;;;;15.70;92.30;;;;;;5083881;28;20038;-81
2022/10/06 07:58:10;;;;;;;;;;;15.80;92.30;;;;;;5080403;28;19989;-81
2022/10/06 08:00:37;;;;;;;;;;;15.80;92.20;;;;;;5083224;28;20004;-80
2022/10/06 08:03:03;;;;;;;;;;;15.80;92.10;;;;;;5084535;28;20241;-81
2022/10/06 08:05:31;;;;;;;;;;;15.80;92.10;;;;;;5082054;28;19939;-81
2022/10/06 08:07:57;;;;;;;;;;;15.80;92.00;;;;;;5083135;28;19928;-79
2022/10/06 08:10:25;;;;;;;;;;;15.80;92.00;;;;;;5083408;28;19950;-80
2022/10/06 08:12:52;;;;;;;;;;;15.80;91.90;;;;;;5082066;28;20470;-81
2022/10/06 08:15:19;;;;;;;;;;;15.90;91.80;;;;;;5083457;28;19928;-81
2022/10/06 08:17:46;;;;;;;;;;;15.80;91.80;;;;;;5083533;28;20722;-81
2022/10/06 08:20:13;;;;;;;;;;;15.90;91.80;;;;;;5077208;28;19932;-80
2022/10/06 08:22:40;;;;;;;;;;;15.90;91.80;;;;;;5083249;28;20432;-81
2022/10/06 08:25:09;;;;;;;;;;;15.80;91.80;;;;;;5083061;28;19997;-81
2022/10/06 08:27:39;;;;;;;;;;;15.90;91.80;;;;;;5079952;28;19928;-80
2022/10/06 08:30:06;;;;;;;;;;;15.90;91.70;;;;;;5082724;28;19928;-80
2022/10/06 08:32:33;;;;;;;;;;;15.90;91.60;;;;;;5083970;28;19927;-81
2022/10/06 08:35:00;;;;;;;;;;;16.00;91.70;;;;;;5083372;28;19928;-81
2022/10/06 08:37:26;;;;;;;;;;;16.00;91.70;;;;;;5079351;28;20027;-81
2022/10/06 08:39:53;;;;;;;;;;;16.00;91.60;;;;;;5083107;28;20026;-81
2022/10/06 08:42:23;;;;;;;;;;;16.00;91.60;;;;;;5079839;28;19928;-80
2022/10/06 08:44:55;;;;;;;;;;;16.00;91.50;;;;;;5083340;28;19932;-80
2022/10/06 08:47:23;;;;;;;;;;;16.00;91.40;;;;;;5084332;28;20027;-81
2022/10/06 08:49:50;;;;;;;;;;;16.10;91.50;;;;;;5082997;28;19943;-81
2022/10/06 08:52:19;;;;;;;;;;;16.00;91.30;;;;;;5083130;28;19928;-81
2022/10/06 08:54:48;;;;;;;;;;;16.00;91.10;;;;;;5083936;28;19928;-81
2022/10/06 08:57:17;;;;;;;;;;;16.00;91.10;;;;;;5078962;28;20639;-81
2022/10/06 08:59:46;;;;;;;;;;;16.00;91.10;;;;;;5083504;28;19928;-81
2022/10/06 09:02:21;;;;;;;;;;;16.00;91.20;;;;;;5081856;28;19932;-81
2022/10/06 09:04:49;;;;;;;;;;;16.10;91.30;;;;;;5083548;28;20682;-80
2022/10/06 09:07:18;;;;;;;;;;;16.10;91.20;;;;;;5082570;28;19940;-80
2022/10/06 09:09:56;;;;;;;;;;;16.10;91.10;;;;;;5085122;28;19937;-81
2022/10/06 09:12:27;;;;;;;;;;;16.10;91.00;;;;;;5083243;28;19939;-80
2022/10/06 09:14:56;;;;;;;;;;;16.10;91.00;;;;;;5084561;28;20761;-81
2022/10/06 09:17:29;;;;;;;;;;;16.20;90.90;;;;;;5083801;28;19950;-80
2022/10/06 09:19:58;;;;;;;;;;;16.20;90.90;;;;;;5080530;28;21408;-80
2022/10/06 09:22:25;;;;;;;;;;;16.30;90.80;;;;;;5080090;28;20780;-81
2022/10/06 09:24:54;;;;;;;;;;;16.30;90.60;;;;;;5083273;28;19934;-80
2022/10/06 09:27:22;;;;;;;;;;;16.40;90.50;;;;;;5078552;28;19935;-81
2022/10/06 09:29:52;;;;;;;;;;;16.40;90.50;;;;;;5082743;28;19940;-81
2022/10/06 09:32:20;;;;;;;;;;;16.50;90.40;;;;;;5083467;28;19928;-80
2022/10/06 09:34:54;;;;;;;;;;;16.60;90.10;;;;;;5080764;28;19937;-80
2022/10/06 09:37:20;;;;;;;;;;;16.60;89.70;;;;;;5083958;28;19939;-81
2022/10/06 09:39:48;;;;;;;;;;;16.70;89.80;;;;;;5081069;28;19928;-80
2022/10/06 09:42:18;;;;;;;;;;;16.80;89.70;;;;;;5078865;28;20034;-81
2022/10/06 09:44:51;;;;;;;;;;;16.80;89.50;;;;;;5083006;28;19929;-81
2022/10/06 09:47:33;;;;;;;;;;;16.90;89.40;;;;;;5083194;28;20373;-80
2022/10/06 09:50:13;;;;;;;;;;;16.90;89.40;;;;;;5077303;28;19933;-81
2022/10/06 09:52:40;;;;;;;;;;;16.90;88.90;;;;;;5086299;28;19939;-81
2022/10/06 09:55:10;;;;;;;;;;;17.00;88.80;;;;;;5086676;28;19938;-81
2022/10/06 09:57:36;;;;;;;;;;;17.00;88.60;;;;;;5082735;28;19943;-81
2022/10/06 10:00:04;;;;;;;;;;;17.00;87.00;;;;;;5087196;28;19982;-81
2022/10/06 10:02:35;;;;;;;;;;;17.00;87.40;;;;;;5086194;28;20304;-80
2022/10/06 10:05:03;;;;;;;;;;;17.00;87.90;;;;;;5086358;28;19928;-81
2022/10/06 10:07:32;;;;;;;;;;;17.00;88.10;;;;;;5087144;28;19928;-81
2022/10/06 10:10:13;;;;;;;;;;;17.00;87.20;;;;;;5087050;28;19991;-81
2022/10/06 10:12:48;;;;;;;;;;;17.00;87.30;;;;;;5083489;28;20011;-81
2022/10/06 10:15:24;;;;;;;;;;;17.10;87.20;;;;;;5085761;28;19935;-81
2022/10/06 10:17:51;;;;;;;;;;;17.10;87.00;;;;;;5086662;28;19935;-81
2022/10/06 10:20:34;;;;;;;;;;;17.20;85.60;;;;;;5083710;28;20015;-81
2022/10/06 10:23:03;;;;;;;;;;;17.20;85.30;;;;;;5083457;28;19932;-81
2022/10/06 10:25:40;;;;;;;;;;;17.20;84.40;;;;;;5085632;28;20413;-81
2022/10/06 10:28:16;;;;;;;;;;;17.30;84.10;;;;;;5084529;28;19932;-82
2022/10/06 10:30:46;;;;;;;;;;;17.30;84.90;;;;;;5085866;28;19928;-81
2022/10/06 10:33:15;;;;;;;;;;;17.30;85.30;;;;;;5086491;28;20537;-81
2022/10/06 10:35:44;;;;;;;;;;;17.40;85.30;;;;;;5086983;28;19936;-81
2022/10/06 10:38:17;;;;;;;;;;;17.30;85.00;;;;;;5081611;28;19928;-81
2022/10/06 10:40:46;;;;;;;;;;;17.40;85.20;;;;;;5085514;28;19928;-81
2022/10/06 10:43:16;;;;;;;;;;;17.40;85.20;;;;;;5082733;28;19943;-80
2022/10/06 10:45:45;;;;;;;;;;;17.50;83.20;;;;;;5085854;28;19928;-80
2022/10/06 10:48:14;;;;;;;;;;;17.50;83.70;;;;;;5086154;28;19928;-80
2022/10/06 10:50:47;;;;;;;;;;;17.60;83.60;;;;;;5084691;28;20054;-81
2022/10/06 10:53:18;;;;;;;;;;;17.60;83.10;;;;;;5086222;28;19928;-81
2022/10/06 10:55:45;;;;;;;;;;;17.70;82.20;;;;;;5086057;28;20388;-81
2022/10/06 10:58:19;;;;;;;;;;;17.80;82.80;;;;;;5082027;28;20422;-80
2022/10/06 11:00:47;;;;;;;;;;;17.80;82.60;;;;;;5085993;28;20710;-81
2022/10/06 11:03:13;;;;;;;;;;;17.90;82.70;;;;;;5084972;28;19928;-80
2022/10/06 11:05:50;;;;;;;;;;;17.90;81.10;;;;;;5085505;28;19935;-80
2022/10/06 11:08:23;;;;;;;;;;;18.00;81.30;;;;;;5080680;28;19965;-80
2022/10/06 11:10:54;;;;;;;;;;;18.10;81.80;;;;;;5085533;28;20026;-80
2022/10/06 11:13:25;;;;;;;;;;;18.10;81.00;;;;;;5083011;28;20001;-80
2022/10/06 11:16:09;;;;;;;;;;;18.10;81.20;;;;;;5086042;28;19978;-79
2022/10/06 11:18:43;;;;;;;;;;;18.10;81.20;;;;;;5083308;28;20090;-79
2022/10/06 11:21:12;;;;;;;;;;;18.20;81.00;;;;;;5084140;28;20374;-81
2022/10/06 11:23:52;;;;;;;;;;;18.20;79.70;;;;;;5084299;28;20296;-81
2022/10/06 11:26:40;;;;;;;;;;;18.30;77.50;;;;;;5082008;28;20347;-79
2022/10/06 11:29:13;;;;;;;;;;;18.40;76.50;;;;;;5083278;28;19935;-81
2022/10/06 11:31:43;;;;;;;;;;;18.40;77.80;;;;;;5083714;28;19927;-81
2022/10/06 11:34:10;;;;;;;;;;;18.50;78.70;;;;;;5084696;28;20299;-80
2022/10/06 11:36:41;;;;;;;;;;;18.50;78.90;;;;;;5084512;28;19927;-81
2022/10/06 11:39:15;;;;;;;;;;;18.60;78.80;;;;;;5085689;28;19927;-81
2022/10/06 11:41:44;;;;;;;;;;;18.70;78.10;;;;;;5081941;28;19932;-79
2022/10/06 11:44:16;;;;;;;;;;;18.70;77.60;;;;;;5082795;28;19984;-81
2022/10/06 11:46:45;;;;;;;;;;;18.80;77.20;;;;;;5084270;28;19928;-82
2022/10/06 11:49:31;;;;;;;;;;;18.90;76.70;;;;;;5083051;28;19932;-81
2022/10/06 11:52:18;;;;;;;;;;;18.90;77.30;;;;;;5081643;28;19928;-80
2022/10/06 11:54:47;;;;;;;;;;;19.00;77.50;;;;;;5085284;28;19928;-81
2022/10/06 11:57:29;;;;;;;;;;;19.00;75.90;;;;;;5080179;28;19928;-82
2022/10/06 11:59:57;;;;;;;;;;;19.00;75.70;;;;;;5083824;28;20070;-80
2022/10/06 12:02:35;;;;;;;;;;;19.10;75.20;;;;;;5083314;28;19928;-80
2022/10/06 12:05:21;;;;;;;;;;;19.20;74.20;;;;;;5085200;28;19944;-81
2022/10/06 12:08:05;;;;;;;;;;;19.10;74.80;;;;;;5084649;28;19928;-80
2022/10/06 12:10:34;;;;;;;;;;;19.20;74.10;;;;;;5083473;28;20005;-81
2022/10/06 12:13:09;;;;;;;;;;;19.20;73.80;;;;;;5083391;28;20311;-80
2022/10/06 12:16:00;;;;;;;;;;;19.30;74.00;;;;;;5083114;28;20136;-80
2022/10/06 12:18:31;;;;;;;;;;;19.30;75.10;;;;;;5072366;28;19932;-82
2022/10/06 12:21:05;;;;;;;;;;;19.40;75.40;;;;;;5082113;28;19928;-81
2022/10/06 12:23:42;;;;;;;;;;;19.40;74.90;;;;;;5083723;28;20760;-81
2022/10/06 12:26:18;;;;;;;;;;;19.40;75.10;;;;;;5081432;28;19928;-81
2022/10/06 12:28:49;;;;;;;;;;;19.50;74.80;;;;;;5080226;28;20007;-81
2022/10/06 12:31:22;;;;;;;;;;;19.50;71.80;;;;;;5083560;28;19935;-80
2022/10/06 12:33:49;;;;;;;;;;;19.60;71.60;;;;;;5083702;28;19924;-81
2022/10/06 12:36:17;;;;;;;;;;;19.60;71.80;;;;;;5081504;28;20020;-81
2022/10/06 12:39:00;;;;;;;;;;;19.70;72.00;;;;;;5079742;28;19950;-81
2022/10/06 12:41:46;;;;;;;;;;;19.70;70.50;;;;;;5081884;28;20310;-81
2022/10/06 12:44:22;;;;;;;;;;;19.70;72.20;;;;;;5083065;28;19976;-80
2022/10/06 12:46:49;;;;;;;;;;;19.80;72.00;;;;;;5084141;28;19928;-81
2022/10/06 12:49:30;;;;;;;;;;;19.80;72.30;;;;;;5083596;28;20855;-81
2022/10/06 12:51:58;;;;;;;;;;;19.80;73.40;;;;;;5076258;28;19940;-81
2022/10/06 12:54:28;;;;;;;;;;;19.80;72.00;;;;;;5084743;28;19932;-82
2022/10/06 12:56:57;;;;;;;;;;;19.80;73.30;;;;;;5082047;28;19928;-82
2022/10/06 12:59:27;;;;;;;;;;;19.80;73.20;;;;;;5083764;28;20048;-81
2022/10/06 13:01:55;;;;;;;;;;;19.80;73.00;;;;;;5083089;28;19928;-82
2022/10/06 13:04:34;;;;;;;;;;;19.80;72.90;;;;;;5082103;28;20396;-81
2022/10/06 13:07:01;;;;;;;;;;;19.70;71.80;;;;;;5080701;28;19928;-82
2022/10/06 13:09:28;;;;;;;;;;;19.80;71.90;;;;;;5084931;28;19935;-81
2022/10/06 13:11:55;;;;;;;;;;;19.80;71.80;;;;;;5083271;28;19935;-81
2022/10/06 13:14:21;;;;;;;;;;;19.80;71.40;;;;;;5083849;28;19935;-81
2022/10/06 13:16:53;;;;;;;;;;;19.80;70.90;;;;;;5082963;28;19951;-81
2022/10/06 13:19:22;;;;;;;;;;;19.90;72.40;;;;;;5075814;28;19935;-82
2022/10/06 13:21:48;;;;;;;;;;;19.90;72.90;;;;;;5083109;28;19932;-81
2022/10/06 13:24:19;;;;;;;;;;;19.90;73.20;;;;;;5083531;28;20512;-82
2022/10/06 13:26:46;;;;;;;;;;;19.90;73.10;;;;;;5082741;28;19978;-82
2022/10/06 13:29:17;;;;;;;;;;;19.90;72.70;;;;;;5088275;28;20023;-82
2022/10/06 13:31:46;;;;;;;;;;;19.90;73.10;;;;;;5086161;28;19935;-81
2022/10/06 13:34:15;;;;;;;;;;;19.90;71.30;;;;;;5088997;28;19928;-82
2022/10/06 13:36:42;;;;;;;;;;;20.00;71.60;;;;;;5086220;28;19932;-82
2022/10/06 13:39:12;;;;;;;;;;;20.00;72.40;;;;;;5088510;28;20443;-82
2022/10/06 13:41:43;;;;;;;;;;;20.00;72.10;;;;;;5085059;28;20467;-82
2022/10/06 13:44:21;;;;;;;;;;;19.90;72.60;;;;;;5086564;28;19938;-82
2022/10/06 13:46:49;;;;;;;;;;;20.00;73.00;;;;;;5087900;28;20013;-81
2022/10/06 13:49:20;;;;;;;;;;;20.00;72.20;;;;;;5086025;28;20755;-81
2022/10/06 13:51:48;;;;;;;;;;;20.00;72.80;;;;;;5086523;28;19934;-82
2022/10/06 13:54:21;;;;;;;;;;;20.00;73.70;;;;;;5087050;28;19939;-81
2022/10/06 13:56:48;;;;;;;;;;;20.10;73.30;;;;;;5083839;28;20667;-82
2022/10/06 13:59:28;;;;;;;;;;;20.00;72.90;;;;;;5086615;28;19927;-82
2022/10/06 14:01:55;;;;;;;;;;;20.10;70.80;;;;;;5087151;28;20412;-82
2022/10/06 14:04:23;;;;;;;;;;;20.20;72.10;;;;;;5087684;28;19935;-82
2022/10/06 14:06:52;;;;;;;;;;;20.20;73.00;;;;;;5086644;28;19928;-81
2022/10/06 14:09:20;;;;;;;;;;;20.30;72.00;;;;;;5086769;28;19928;-82
2022/10/06 14:11:47;;;;;;;;;;;20.20;71.10;;;;;;5086171;28;19928;-81
2022/10/06 14:14:15;;;;;;;;;;;20.30;72.30;;;;;;5086169;28;20285;-80
2022/10/06 14:16:46;;;;;;;;;;;20.40;72.20;;;;;;5085704;28;19938;-81
2022/10/06 14:19:29;;;;;;;;;;;20.40;71.70;;;;;;5086541;28;19928;-80
2022/10/06 14:21:56;;;;;;;;;;;20.40;72.20;;;;;;5085087;28;19932;-80
2022/10/06 14:24:24;;;;;;;;;;;20.50;71.20;;;;;;5086484;28;19935;-81
2022/10/06 14:26:53;;;;;;;;;;;20.60;71.30;;;;;;5083633;28;19928;-81
2022/10/06 14:29:20;;;;;;;;;;;20.60;71.80;;;;;;5087515;28;19935;-80
2022/10/06 14:31:47;;;;;;;;;;;20.60;71.00;;;;;;5086474;28;19928;-82
2022/10/06 14:34:15;;;;;;;;;;;20.70;71.70;;;;;;5086799;28;19928;-81
2022/10/06 14:36:44;;;;;;;;;;;20.70;69.00;;;;;;5085594;28;19943;-81
2022/10/06 14:39:12;;;;;;;;;;;20.70;69.90;;;;;;5087088;28;20196;-81
2022/10/06 14:41:38;;;;;;;;;;;20.70;69.10;;;;;;5083620;28;19928;-82